PWSweather.com
Personal Weather Stations
Station Observations
SEAWX98122
Seattle (greenwood), Seattle, WA 98103

Seattle (greenwood)Seattle, WA 98103

Lat: 47.6977, Lon: -122.347

Elevation: 324

Station Type: Davis Vantage Pro 2

https://www.seattleweather.org

Latest ConditionsUpdated 1:40:01 PM PDT Monday, Sep 23, 2019
Currently Today's Max Today's Min Today's Average
Temperature 57.4°F14.1°C 59.2°F15.1°C 54.8°F12.7°C 56.7°F13.7°C
Dew Point 53.6°F12.0°C 55.1°F12.8°C 51.2°F10.7°C 53.0°F11.7°C
Winds 6.9 mph SW11.1 kmh SW 8.1 mph -13.0 kmh - - 3.8 mph 6.1 kmh
Wind Gusts 9.2 mph14.8 kmh 16.1 mph25.9 kmh - -
Humidity 87% 94% 77% 88%
Pressure 30.23 in1023.7 mb 30.24 in1024.0 mb 30.01 in1016.3 mb -
Precipitation - 0.05 in1.3 mm - -
Hour Temp Dew Point Humidity Winds Wind Gusts Pressure Precip Precip Rate Daily Precip Total
01:40 PM 57.4°F14.1°C 53.6°F12.0°C 87% 6.9 mph SW11.1 kmh SW 9.2 mph14.8 kmh 30.23 in1023.7 mb - 0.02 in0.5 mm 0.05 in1.3 mm
01:35 PM 57.4°F14.1°C 53.6°F12.0°C 87% 5.8 mph S9.3 kmh S 9.2 mph14.8 kmh 30.24 in1024.0 mb - 0.02 in0.5 mm 0.05 in1.3 mm
01:30 PM 57.5°F14.2°C 53.6°F12.0°C 87% 3.5 mph SSW5.6 kmh SSW 6.9 mph11.1 kmh 30.24 in1024.0 mb - 0.02 in0.5 mm 0.05 in1.3 mm
01:25 PM 57.4°F14.1°C 53.6°F12.0°C 87% 4.6 mph S7.4 kmh S 10.4 mph16.7 kmh 30.24 in1024.0 mb - 0.02 in0.5 mm 0.05 in1.3 mm
01:20 PM 57.4°F14.1°C 53.2°F11.8°C 86% 5.8 mph SW9.3 kmh SW 10.4 mph16.7 kmh 30.24 in1024.0 mb - 0.02 in0.5 mm 0.05 in1.3 mm
01:15 PM 57.5°F14.2°C 53.3°F11.8°C 86% 4.6 mph SSW7.4 kmh SSW 11.5 mph18.5 kmh 30.23 in1023.7 mb - 0.01 in0.3 mm 0.04 in1.0 mm
01:10 PM 57.6°F14.2°C 53.4°F11.9°C 86% 8.1 mph SW13.0 kmh SW 10.4 mph16.7 kmh 30.23 in1023.7 mb - 0.01 in0.3 mm 0.04 in1.0 mm
01:00 PM 57.7°F14.3°C 53.2°F11.8°C 85% 4.6 mph SW7.4 kmh SW 6.9 mph11.1 kmh 30.23 in1023.7 mb - 0.02 in0.5 mm 0.04 in1.0 mm
12:55 PM 57.7°F14.3°C 53.5°F11.9°C 86% 4.6 mph SSW7.4 kmh SSW 10.4 mph16.7 kmh 30.23 in1023.7 mb - 0.02 in0.5 mm 0.04 in1.0 mm
12:50 PM 57.7°F14.3°C 53.5°F11.9°C 86% 4.6 mph S7.4 kmh S 5.8 mph9.3 kmh 30.23 in1023.7 mb - 0.02 in0.5 mm 0.04 in1.0 mm
12:45 PM 57.6°F14.2°C 53.4°F11.9°C 86% 3.5 mph SSW5.6 kmh SSW 4.6 mph7.4 kmh 30.23 in1023.7 mb - 0.03 in0.8 mm 0.04 in1.0 mm
12:40 PM 57.6°F14.2°C 53.1°F11.7°C 85% 1.2 mph SW1.9 kmh SW 4.6 mph7.4 kmh 30.23 in1023.7 mb - 0.02 in0.5 mm 0.03 in0.8 mm
12:35 PM 57.5°F14.2°C 53.0°F11.7°C 85% 6.9 mph S11.1 kmh S 8.1 mph13.0 kmh 30.22 in1023.4 mb - 0.02 in0.5 mm 0.03 in0.8 mm
12:30 PM 57.6°F14.2°C 53.1°F11.7°C 85% 3.5 mph SW5.6 kmh SW 9.2 mph14.8 kmh 30.22 in1023.4 mb - 0.02 in0.5 mm 0.03 in0.8 mm
12:25 PM 57.6°F14.2°C 53.2°F11.8°C 85% 2.3 mph SW3.7 kmh SW 4.6 mph7.4 kmh 30.23 in1023.7 mb - 0.02 in0.5 mm 0.03 in0.8 mm
12:20 PM 57.6°F14.2°C 53.2°F11.8°C 85% 4.6 mph S7.4 kmh S 6.9 mph11.1 kmh 30.22 in1023.4 mb - 0.02 in0.5 mm 0.03 in0.8 mm
12:15 PM 57.6°F14.2°C 53.1°F11.7°C 85% 5.8 mph SSW9.3 kmh SSW 9.2 mph14.8 kmh 30.22 in1023.4 mb - 0.02 in0.5 mm 0.03 in0.8 mm
12:10 PM 57.6°F14.2°C 53.1°F11.7°C 85% 4.6 mph SSW7.4 kmh SSW 6.9 mph11.1 kmh 30.22 in1023.4 mb - 0.02 in0.5 mm 0.03 in0.8 mm
12:00 PM 57.4°F14.1°C 52.3°F11.3°C 83% 3.5 mph SW5.6 kmh SW 4.6 mph7.4 kmh 30.22 in1023.4 mb - 0.01 in0.3 mm 0.02 in0.5 mm
11:55 AM 57.5°F14.2°C 52.7°F11.5°C 84% 1.2 mph SW1.9 kmh SW 3.5 mph5.6 kmh 30.22 in1023.4 mb - 0.01 in0.3 mm 0.02 in0.5 mm
11:50 AM 57.6°F14.2°C 52.2°F11.2°C 82% 6.9 mph SSW11.1 kmh SSW 8.1 mph13.0 kmh 30.21 in1023.0 mb - 0.01 in0.3 mm 0.02 in0.5 mm
11:45 AM 57.9°F14.4°C 52.5°F11.4°C 82% 5.8 mph SW9.3 kmh SW 13.8 mph22.2 kmh 30.21 in1023.0 mb - 0.00 in0.0 mm 0.01 in0.3 mm
11:40 AM 58.1°F14.5°C 52.3°F11.3°C 81% 6.9 mph SW11.1 kmh SW 6.9 mph11.1 kmh 30.21 in1023.0 mb - 0.00 in0.0 mm 0.01 in0.3 mm
11:35 AM 58.4°F14.7°C 52.6°F11.4°C 81% 4.6 mph SSW7.4 kmh SSW 10.4 mph16.7 kmh 30.21 in1023.0 mb - 0.00 in0.0 mm 0.01 in0.3 mm
11:30 AM 58.5°F14.7°C 52.4°F11.3°C 80% 3.5 mph SW5.6 kmh SW 6.9 mph11.1 kmh 30.21 in1023.0 mb - 0.00 in0.0 mm 0.01 in0.3 mm
11:25 AM 58.7°F14.8°C 52.2°F11.2°C 79% 4.6 mph S7.4 kmh S 8.1 mph13.0 kmh 30.21 in1023.0 mb - 0.00 in0.0 mm 0.01 in0.3 mm
11:20 AM 58.8°F14.9°C 52.3°F11.3°C 79% 6.9 mph S11.1 kmh S 11.5 mph18.5 kmh 30.21 in1023.0 mb - 0.00 in0.0 mm 0.01 in0.3 mm
11:15 AM 58.9°F14.9°C 52.8°F11.6°C 80% 5.8 mph SW9.3 kmh SW 16.1 mph25.9 kmh 30.21 in1023.0 mb - 0.00 in0.0 mm 0.01 in0.3 mm
11:10 AM 59.0°F15.0°C 52.8°F11.6°C 80% 3.5 mph SSW5.6 kmh SSW 6.9 mph11.1 kmh 30.21 in1023.0 mb - 0.00 in0.0 mm 0.01 in0.3 mm
11:00 AM 58.9°F14.9°C 52.4°F11.3°C 79% 2.3 mph SSW3.7 kmh SSW 6.9 mph11.1 kmh 30.21 in1023.0 mb - 0.00 in0.0 mm 0.01 in0.3 mm
10:55 AM 58.9°F14.9°C 52.0°F11.1°C 78% 4.6 mph SW7.4 kmh SW 11.5 mph18.5 kmh 30.21 in1023.0 mb - 0.00 in0.0 mm 0.01 in0.3 mm
10:50 AM 58.8°F14.9°C 52.0°F11.1°C 78% 4.6 mph SW7.4 kmh SW 9.2 mph14.8 kmh 30.20 in1022.7 mb - 0.00 in0.0 mm 0.01 in0.3 mm
10:45 AM 59.0°F15.0°C 52.1°F11.2°C 78% 6.9 mph SSW11.1 kmh SSW 9.2 mph14.8 kmh 30.20 in1022.7 mb - 0.00 in0.0 mm 0.01 in0.3 mm
10:40 AM 59.0°F15.0°C 52.1°F11.2°C 78% 5.8 mph SW9.3 kmh SW 5.8 mph9.3 kmh 30.19 in1022.4 mb - 0.00 in0.0 mm 0.01 in0.3 mm
10:35 AM 59.1°F15.1°C 51.9°F11.1°C 77% 6.9 mph S11.1 kmh S 9.2 mph14.8 kmh 30.19 in1022.4 mb - 0.00 in0.0 mm 0.01 in0.3 mm
10:30 AM 59.2°F15.1°C 52.3°F11.3°C 78% 4.6 mph S7.4 kmh S 11.5 mph18.5 kmh 30.19 in1022.4 mb - 0.00 in0.0 mm 0.01 in0.3 mm
10:25 AM 58.9°F14.9°C 52.0°F11.1°C 78% 4.6 mph S7.4 kmh S 5.8 mph9.3 kmh 30.19 in1022.4 mb - 0.00 in0.0 mm 0.01 in0.3 mm
10:20 AM 58.4°F14.7°C 51.6°F10.9°C 78% 6.9 mph S11.1 kmh S 9.2 mph14.8 kmh 30.18 in1022.0 mb - 0.00 in0.0 mm 0.01 in0.3 mm
10:15 AM 58.3°F14.6°C 51.8°F11.0°C 79% 4.6 mph S7.4 kmh S 8.1 mph13.0 kmh 30.19 in1022.4 mb - 0.00 in0.0 mm 0.01 in0.3 mm
10:10 AM 58.3°F14.6°C 51.9°F11.1°C 79% 3.5 mph S5.6 kmh S 4.6 mph7.4 kmh 30.19 in1022.4 mb - 0.00 in0.0 mm 0.01 in0.3 mm
10:00 AM 58.3°F14.6°C 51.9°F11.1°C 79% 3.5 mph SW5.6 kmh SW 5.8 mph9.3 kmh 30.19 in1022.4 mb - 0.01 in0.3 mm 0.01 in0.3 mm
09:55 AM 58.4°F14.7°C 51.9°F11.1°C 79% 3.5 mph S5.6 kmh S 3.5 mph5.6 kmh 30.18 in1022.0 mb - 0.01 in0.3 mm 0.01 in0.3 mm
09:50 AM 58.5°F14.7°C 52.0°F11.1°C 79% 5.8 mph S9.3 kmh S 8.1 mph13.0 kmh 30.18 in1022.0 mb - 0.01 in0.3 mm 0.01 in0.3 mm
09:45 AM 58.7°F14.8°C 52.2°F11.2°C 79% 3.5 mph SW5.6 kmh SW 11.5 mph18.5 kmh 30.18 in1022.0 mb - 0.01 in0.3 mm 0.01 in0.3 mm
09:40 AM 58.9°F14.9°C 52.4°F11.3°C 79% 2.3 mph WSW3.7 kmh WSW 2.3 mph3.7 kmh 30.18 in1022.0 mb - 0.01 in0.3 mm 0.01 in0.3 mm
09:35 AM 59.0°F15.0°C 52.1°F11.2°C 78% 4.6 mph S7.4 kmh S 6.9 mph11.1 kmh 30.18 in1022.0 mb - 0.01 in0.3 mm 0.01 in0.3 mm
09:30 AM 59.1°F15.1°C 52.6°F11.4°C 79% 4.6 mph S7.4 kmh S 9.2 mph14.8 kmh 30.17 in1021.7 mb - 0.01 in0.3 mm 0.01 in0.3 mm
09:25 AM 58.6°F14.8°C 52.8°F11.6°C 81% 3.5 mph SSE5.6 kmh SSE 8.1 mph13.0 kmh 30.17 in1021.7 mb - 0.01 in0.3 mm 0.01 in0.3 mm
09:20 AM 57.8°F14.3°C 52.0°F11.1°C 81% 6.9 mph SSW11.1 kmh SSW 8.1 mph13.0 kmh 30.17 in1021.7 mb - 0.01 in0.3 mm 0.01 in0.3 mm
09:15 AM 57.4°F14.1°C 52.0°F11.1°C 82% 4.6 mph SSW7.4 kmh SSW 8.1 mph13.0 kmh 30.16 in1021.3 mb - 0.01 in0.3 mm 0.01 in0.3 mm
09:10 AM 57.3°F14.1°C 52.2°F11.2°C 83% 2.3 mph S3.7 kmh S 3.5 mph5.6 kmh 30.16 in1021.3 mb - 0.01 in0.3 mm 0.01 in0.3 mm
09:00 AM 56.9°F13.8°C 51.8°F11.0°C 83% 2.3 mph S3.7 kmh S 5.8 mph9.3 kmh 30.17 in1021.7 mb - 0.00 in0.0 mm 0.07 in1.8 mm
08:55 AM 56.7°F13.7°C 51.9°F11.1°C 84% 3.5 mph S5.6 kmh S 5.8 mph9.3 kmh 30.17 in1021.7 mb - 0.00 in0.0 mm 0.07 in1.8 mm
08:50 AM 56.5°F13.6°C 51.4°F10.8°C 83% 4.6 mph S7.4 kmh S 8.1 mph13.0 kmh 30.17 in1021.7 mb - 0.00 in0.0 mm 0.07 in1.8 mm
08:45 AM 56.4°F13.6°C 51.6°F10.9°C 84% 4.6 mph SW7.4 kmh SW 8.1 mph13.0 kmh 30.16 in1021.3 mb - 0.00 in0.0 mm 0.07 in1.8 mm
08:40 AM 56.3°F13.5°C 51.2°F10.7°C 83% 4.6 mph SSW7.4 kmh SSW 4.6 mph7.4 kmh 30.16 in1021.3 mb - 0.00 in0.0 mm 0.07 in1.8 mm
08:35 AM 56.4°F13.6°C 51.6°F10.9°C 84% 5.8 mph SSW9.3 kmh SSW 9.2 mph14.8 kmh 30.16 in1021.3 mb - 0.00 in0.0 mm 0.07 in1.8 mm
08:30 AM 56.3°F13.5°C 51.6°F10.9°C 84% 2.3 mph S3.7 kmh S 5.8 mph9.3 kmh 30.17 in1021.7 mb - 0.00 in0.0 mm 0.07 in1.8 mm
08:25 AM 56.3°F13.5°C 51.8°F11.0°C 85% 2.3 mph SSW3.7 kmh SSW 4.6 mph7.4 kmh 30.16 in1021.3 mb - 0.00 in0.0 mm 0.07 in1.8 mm
08:20 AM 56.2°F13.4°C 51.4°F10.8°C 84% 6.9 mph SSW11.1 kmh SSW 8.1 mph13.0 kmh 30.15 in1021.0 mb - 0.00 in0.0 mm 0.07 in1.8 mm
08:15 AM 56.1°F13.4°C 51.7°F10.9°C 85% 3.5 mph SW5.6 kmh SW 8.1 mph13.0 kmh 30.14 in1020.7 mb - 0.00 in0.0 mm 0.07 in1.8 mm
08:10 AM 55.9°F13.3°C 51.5°F10.8°C 85% 2.3 mph S3.7 kmh S 3.5 mph5.6 kmh 30.14 in1020.7 mb - 0.00 in0.0 mm 0.07 in1.8 mm
08:00 AM 55.7°F13.2°C 51.3°F10.7°C 85% 4.6 mph S7.4 kmh S 9.2 mph14.8 kmh 30.14 in1020.7 mb - 0.00 in0.0 mm 0.07 in1.8 mm
07:55 AM 55.6°F13.1°C 51.5°F10.8°C 86% 5.8 mph S9.3 kmh S 11.5 mph18.5 kmh 30.14 in1020.7 mb - 0.00 in0.0 mm 0.07 in1.8 mm
07:50 AM 55.6°F13.1°C 51.5°F10.8°C 86% 5.8 mph S9.3 kmh S 6.9 mph11.1 kmh 30.14 in1020.7 mb - 0.00 in0.0 mm 0.07 in1.8 mm
07:45 AM 55.5°F13.1°C 51.3°F10.7°C 86% 3.5 mph S5.6 kmh S 4.6 mph7.4 kmh 30.14 in1020.7 mb - 0.00 in0.0 mm 0.07 in1.8 mm
07:40 AM 55.3°F12.9°C 51.5°F10.8°C 87% 4.6 mph S7.4 kmh S 8.1 mph13.0 kmh 30.14 in1020.7 mb - 0.00 in0.0 mm 0.07 in1.8 mm
07:35 AM 55.2°F12.9°C 51.4°F10.8°C 87% 4.6 mph SSW7.4 kmh SSW 11.5 mph18.5 kmh 30.13 in1020.3 mb - 0.00 in0.0 mm 0.07 in1.8 mm
07:30 AM 55.2°F12.9°C 51.4°F10.8°C 87% 5.8 mph SSE9.3 kmh SSE 8.1 mph13.0 kmh 30.13 in1020.3 mb - 0.00 in0.0 mm 0.07 in1.8 mm
07:25 AM 55.1°F12.8°C 51.3°F10.7°C 87% 5.8 mph S9.3 kmh S 8.1 mph13.0 kmh 30.13 in1020.3 mb - 0.00 in0.0 mm 0.07 in1.8 mm
07:20 AM 55.1°F12.8°C 51.3°F10.7°C 87% 4.6 mph S7.4 kmh S 10.4 mph16.7 kmh 30.12 in1020.0 mb - 0.00 in0.0 mm 0.07 in1.8 mm
07:15 AM 55.2°F12.9°C 51.4°F10.8°C 87% 4.6 mph S7.4 kmh S 4.6 mph7.4 kmh 30.12 in1020.0 mb - 0.00 in0.0 mm 0.07 in1.8 mm
07:10 AM 55.1°F12.8°C 51.3°F10.7°C 87% 4.6 mph SSW7.4 kmh SSW 5.8 mph9.3 kmh 30.12 in1020.0 mb - 0.00 in0.0 mm 0.07 in1.8 mm
07:00 AM 55.1°F12.8°C 51.6°F10.9°C 88% 1.2 mph SW1.9 kmh SW 4.6 mph7.4 kmh 30.12 in1020.0 mb - 0.00 in0.0 mm 0.07 in1.8 mm
06:55 AM 55.1°F12.8°C 51.6°F10.9°C 88% 6.9 mph SW11.1 kmh SW 15.0 mph24.1 kmh 30.12 in1020.0 mb - 0.00 in0.0 mm 0.07 in1.8 mm
06:50 AM 55.1°F12.8°C 51.6°F10.9°C 88% 5.8 mph SW9.3 kmh SW 11.5 mph18.5 kmh 30.11 in1019.6 mb - 0.00 in0.0 mm 0.07 in1.8 mm
06:45 AM 55.1°F12.8°C 51.6°F10.9°C 88% 4.6 mph S7.4 kmh S 5.8 mph9.3 kmh 30.10 in1019.3 mb - 0.00 in0.0 mm 0.07 in1.8 mm
06:40 AM 55.1°F12.8°C 51.6°F10.9°C 88% 4.6 mph S7.4 kmh S 6.9 mph11.1 kmh 30.11 in1019.6 mb - 0.00 in0.0 mm 0.07 in1.8 mm
06:35 AM 55.0°F12.8°C 51.8°F11.0°C 89% 4.6 mph SSW7.4 kmh SSW 4.6 mph7.4 kmh 30.11 in1019.6 mb - 0.00 in0.0 mm 0.07 in1.8 mm
06:30 AM 55.0°F12.8°C 51.8°F11.0°C 89% 3.5 mph S5.6 kmh S 8.1 mph13.0 kmh 30.10 in1019.3 mb - 0.00 in0.0 mm 0.07 in1.8 mm
06:25 AM 54.9°F12.7°C 51.8°F11.0°C 89% 4.6 mph S7.4 kmh S 8.1 mph13.0 kmh 30.11 in1019.6 mb - 0.00 in0.0 mm 0.07 in1.8 mm
06:20 AM 54.9°F12.7°C 51.7°F10.9°C 89% 2.3 mph SSW3.7 kmh SSW 3.5 mph5.6 kmh 30.11 in1019.6 mb - 0.00 in0.0 mm 0.07 in1.8 mm
06:15 AM 54.9°F12.7°C 52.1°F11.2°C 90% 3.5 mph SW5.6 kmh SW 5.8 mph9.3 kmh 30.11 in1019.6 mb - 0.00 in0.0 mm 0.07 in1.8 mm
06:10 AM 54.8°F12.7°C 51.9°F11.1°C 90% 5.8 mph SSW9.3 kmh SSW 8.1 mph13.0 kmh 30.12 in1020.0 mb - 0.00 in0.0 mm 0.07 in1.8 mm
06:00 AM 54.9°F12.7°C 52.0°F11.1°C 90% 2.3 mph SSW3.7 kmh SSW 4.6 mph7.4 kmh 30.11 in1019.6 mb - 0.00 in0.0 mm 0.07 in1.8 mm
05:55 AM 54.9°F12.7°C 52.0°F11.1°C 90% 3.5 mph S5.6 kmh S 8.1 mph13.0 kmh 30.11 in1019.6 mb - 0.00 in0.0 mm 0.07 in1.8 mm
05:50 AM 54.9°F12.7°C 52.0°F11.1°C 90% 4.6 mph S7.4 kmh S 9.2 mph14.8 kmh 30.11 in1019.6 mb - 0.00 in0.0 mm 0.07 in1.8 mm
05:45 AM 54.9°F12.7°C 52.3°F11.3°C 91% 2.3 mph SSW3.7 kmh SSW 3.5 mph5.6 kmh 30.11 in1019.6 mb - 0.00 in0.0 mm 0.07 in1.8 mm
05:40 AM 55.0°F12.8°C 52.4°F11.3°C 91% 2.3 mph S3.7 kmh S 10.4 mph16.7 kmh 30.11 in1019.6 mb - 0.00 in0.0 mm 0.07 in1.8 mm
05:35 AM 55.0°F12.8°C 52.4°F11.3°C 91% 2.3 mph SSW3.7 kmh SSW 3.5 mph5.6 kmh 30.10 in1019.3 mb - 0.00 in0.0 mm 0.07 in1.8 mm
05:30 AM 54.9°F12.7°C 52.3°F11.3°C 91% 3.5 mph SSW5.6 kmh SSW 4.6 mph7.4 kmh 30.10 in1019.3 mb - 0.00 in0.0 mm 0.07 in1.8 mm
05:25 AM 54.9°F12.7°C 52.4°F11.3°C 91% 2.3 mph S3.7 kmh S 5.8 mph9.3 kmh 30.10 in1019.3 mb - 0.00 in0.0 mm 0.07 in1.8 mm
05:20 AM 54.9°F12.7°C 52.6°F11.4°C 92% 4.6 mph SSW7.4 kmh SSW 10.4 mph16.7 kmh 30.09 in1019.0 mb - 0.00 in0.0 mm 0.07 in1.8 mm
05:15 AM 55.0°F12.8°C 52.7°F11.5°C 92% 4.6 mph S7.4 kmh S 5.8 mph9.3 kmh 30.09 in1019.0 mb - 0.00 in0.0 mm 0.07 in1.8 mm
05:10 AM 55.0°F12.8°C 52.7°F11.5°C 92% 3.5 mph SW5.6 kmh SW 3.5 mph5.6 kmh 30.10 in1019.3 mb - 0.00 in0.0 mm 0.07 in1.8 mm
05:00 AM 55.2°F12.9°C 53.2°F11.8°C 93% 2.3 mph S3.7 kmh S 3.5 mph5.6 kmh 30.11 in1019.6 mb - 0.00 in0.0 mm 0.07 in1.8 mm
04:55 AM 55.2°F12.9°C 53.2°F11.8°C 93% 4.6 mph S7.4 kmh S 6.9 mph11.1 kmh 30.10 in1019.3 mb - 0.00 in0.0 mm 0.07 in1.8 mm
04:50 AM 55.3°F12.9°C 53.3°F11.8°C 93% 3.5 mph S5.6 kmh S 5.8 mph9.3 kmh 30.10 in1019.3 mb - 0.00 in0.0 mm 0.07 in1.8 mm
04:45 AM 55.4°F13.0°C 53.4°F11.9°C 93% 3.5 mph S5.6 kmh S 3.5 mph5.6 kmh 30.09 in1019.0 mb - 0.00 in0.0 mm 0.07 in1.8 mm
04:40 AM 55.4°F13.0°C 53.4°F11.9°C 93% 2.3 mph S3.7 kmh S 2.3 mph3.7 kmh 30.09 in1019.0 mb - 0.00 in0.0 mm 0.07 in1.8 mm
04:35 AM 55.4°F13.0°C 53.5°F11.9°C 93% 4.6 mph S7.4 kmh S 5.8 mph9.3 kmh 30.09 in1019.0 mb - 0.00 in0.0 mm 0.07 in1.8 mm
04:30 AM 55.4°F13.0°C 53.4°F11.9°C 93% 1.2 mph S1.9 kmh S 3.5 mph5.6 kmh 30.09 in1019.0 mb - 0.00 in0.0 mm 0.07 in1.8 mm
04:25 AM 55.4°F13.0°C 53.5°F11.9°C 93% 3.5 mph S5.6 kmh S 5.8 mph9.3 kmh 30.09 in1019.0 mb - 0.00 in0.0 mm 0.07 in1.8 mm
04:20 AM 55.5°F13.1°C 53.5°F11.9°C 93% 4.6 mph S7.4 kmh S 9.2 mph14.8 kmh 30.08 in1018.6 mb - 0.00 in0.0 mm 0.07 in1.8 mm
04:15 AM 55.5°F13.1°C 53.5°F11.9°C 93% 5.8 mph SSW9.3 kmh SSW 9.2 mph14.8 kmh 30.08 in1018.6 mb - 0.00 in0.0 mm 0.07 in1.8 mm
04:10 AM 55.5°F13.1°C 53.5°F11.9°C 93% 3.5 mph S5.6 kmh S 4.6 mph7.4 kmh 30.07 in1018.3 mb - 0.00 in0.0 mm 0.07 in1.8 mm
04:00 AM 55.6°F13.1°C 53.6°F12.0°C 93% 3.5 mph S5.6 kmh S 6.9 mph11.1 kmh 30.07 in1018.3 mb - 0.00 in0.0 mm 0.07 in1.8 mm
03:55 AM 55.6°F13.1°C 53.6°F12.0°C 93% 2.3 mph S3.7 kmh S 5.8 mph9.3 kmh 30.07 in1018.3 mb - 0.00 in0.0 mm 0.07 in1.8 mm
03:50 AM 55.6°F13.1°C 53.6°F12.0°C 93% 4.6 mph S7.4 kmh S 8.1 mph13.0 kmh 30.07 in1018.3 mb - 0.00 in0.0 mm 0.07 in1.8 mm
03:45 AM 55.7°F13.2°C 53.7°F12.1°C 93% 2.3 mph S3.7 kmh S 6.9 mph11.1 kmh 30.07 in1018.3 mb - 0.00 in0.0 mm 0.07 in1.8 mm
03:40 AM 55.7°F13.2°C 53.7°F12.1°C 93% 3.5 mph SSW5.6 kmh SSW 8.1 mph13.0 kmh 30.07 in1018.3 mb - 0.00 in0.0 mm 0.07 in1.8 mm
03:35 AM 55.8°F13.2°C 53.8°F12.1°C 93% 4.6 mph S7.4 kmh S 8.1 mph13.0 kmh 30.07 in1018.3 mb - 0.00 in0.0 mm 0.07 in1.8 mm
03:30 AM 55.9°F13.3°C 53.9°F12.2°C 93% 4.6 mph S7.4 kmh S 8.1 mph13.0 kmh 30.07 in1018.3 mb - 0.00 in0.0 mm 0.07 in1.8 mm
03:25 AM 56.1°F13.4°C 54.1°F12.3°C 93% 5.8 mph SSW9.3 kmh SSW 5.8 mph9.3 kmh 30.07 in1018.3 mb - 0.00 in0.0 mm 0.07 in1.8 mm
03:20 AM 56.2°F13.4°C 54.2°F12.3°C 93% 2.3 mph SW3.7 kmh SW 5.8 mph9.3 kmh 30.07 in1018.3 mb - 0.00 in0.0 mm 0.07 in1.8 mm
03:15 AM 56.2°F13.4°C 54.2°F12.3°C 93% 1.2 mph S1.9 kmh S 1.2 mph1.9 kmh 30.07 in1018.3 mb - 0.00 in0.0 mm 0.07 in1.8 mm
03:10 AM 56.1°F13.4°C 54.1°F12.3°C 93% 3.5 mph SSW5.6 kmh SSW 4.6 mph7.4 kmh 30.07 in1018.3 mb - 0.00 in0.0 mm 0.07 in1.8 mm
03:00 AM 56.2°F13.4°C 54.2°F12.3°C 93% 1.2 mph SSE1.9 kmh SSE 3.5 mph5.6 kmh 30.06 in1017.9 mb - 0.00 in0.0 mm 0.07 in1.8 mm
02:55 AM 56.3°F13.5°C 54.3°F12.4°C 93% 3.5 mph S5.6 kmh S 4.6 mph7.4 kmh 30.06 in1017.9 mb - 0.00 in0.0 mm 0.07 in1.8 mm
02:50 AM 56.4°F13.6°C 54.4°F12.4°C 93% 2.3 mph SE3.7 kmh SE 4.6 mph7.4 kmh 30.05 in1017.6 mb - 0.00 in0.0 mm 0.07 in1.8 mm
02:45 AM 56.5°F13.6°C 54.5°F12.5°C 93% 2.3 mph SE3.7 kmh SE 3.5 mph5.6 kmh 30.06 in1017.9 mb - 0.00 in0.0 mm 0.07 in1.8 mm
02:40 AM 56.6°F13.7°C 54.6°F12.6°C 93% 2.3 mph SSE3.7 kmh SSE 3.5 mph5.6 kmh 30.06 in1017.9 mb - 0.00 in0.0 mm 0.07 in1.8 mm
02:35 AM 56.6°F13.7°C 54.9°F12.7°C 94% 1.2 mph S1.9 kmh S 3.5 mph5.6 kmh 30.06 in1017.9 mb - 0.00 in0.0 mm 0.07 in1.8 mm
02:30 AM 56.6°F13.7°C 54.6°F12.6°C 93% 1.2 mph S1.9 kmh S 2.3 mph3.7 kmh 30.06 in1017.9 mb - 0.00 in0.0 mm 0.07 in1.8 mm
02:25 AM 56.6°F13.7°C 54.6°F12.6°C 93% Calm Calm 2.3 mph3.7 kmh 30.06 in1017.9 mb - 0.00 in0.0 mm 0.07 in1.8 mm
02:20 AM 56.6°F13.7°C 54.6°F12.6°C 93% Calm Calm -- 30.06 in1017.9 mb - 0.00 in0.0 mm 0.07 in1.8 mm
02:15 AM 56.6°F13.7°C 54.6°F12.6°C 93% 1.2 mph SSW1.9 kmh SSW 3.5 mph5.6 kmh 30.05 in1017.6 mb - 0.00 in0.0 mm 0.07 in1.8 mm
02:10 AM 56.6°F13.7°C 54.6°F12.6°C 93% 1.2 mph S1.9 kmh S 3.5 mph5.6 kmh 30.05 in1017.6 mb - 0.00 in0.0 mm 0.07 in1.8 mm
02:00 AM 56.7°F13.7°C 54.7°F12.6°C 93% 2.3 mph S3.7 kmh S 3.5 mph5.6 kmh 30.05 in1017.6 mb - 0.00 in0.0 mm 0.07 in1.8 mm
01:55 AM 56.8°F13.8°C 54.8°F12.7°C 93% Calm Calm 1.2 mph1.9 kmh 30.05 in1017.6 mb - 0.00 in0.0 mm 0.07 in1.8 mm
01:50 AM 56.8°F13.8°C 54.8°F12.7°C 93% 1.2 mph SE1.9 kmh SE -- 30.05 in1017.6 mb - 0.00 in0.0 mm 0.07 in1.8 mm
01:45 AM 56.8°F13.8°C 54.8°F12.7°C 93% 1.2 mph S1.9 kmh S 2.3 mph3.7 kmh 30.05 in1017.6 mb - 0.00 in0.0 mm 0.07 in1.8 mm
01:40 AM 56.8°F13.8°C 54.8°F12.7°C 93% 1.2 mph SSE1.9 kmh SSE 3.5 mph5.6 kmh 30.05 in1017.6 mb - 0.00 in0.0 mm 0.07 in1.8 mm
01:35 AM 56.8°F13.8°C 54.8°F12.7°C 93% 2.3 mph S3.7 kmh S 3.5 mph5.6 kmh 30.05 in1017.6 mb - 0.00 in0.0 mm 0.07 in1.8 mm
01:30 AM 56.8°F13.8°C 54.8°F12.7°C 93% 1.2 mph S1.9 kmh S 1.2 mph1.9 kmh 30.05 in1017.6 mb - 0.00 in0.0 mm 0.07 in1.8 mm
01:25 AM 56.9°F13.8°C 54.9°F12.7°C 93% 2.3 mph S3.7 kmh S 3.5 mph5.6 kmh 30.04 in1017.3 mb - 0.00 in0.0 mm 0.07 in1.8 mm
01:20 AM 56.8°F13.8°C 54.8°F12.7°C 93% Calm Calm 3.5 mph5.6 kmh 30.04 in1017.3 mb - 0.00 in0.0 mm 0.07 in1.8 mm
01:15 AM 56.8°F13.8°C 54.8°F12.7°C 93% 2.3 mph SSE3.7 kmh SSE 4.6 mph7.4 kmh 30.04 in1017.3 mb - 0.00 in0.0 mm 0.07 in1.8 mm
01:10 AM 56.8°F13.8°C 54.8°F12.7°C 93% 4.6 mph S7.4 kmh S 4.6 mph7.4 kmh 30.04 in1017.3 mb - 0.00 in0.0 mm 0.07 in1.8 mm
01:00 AM 56.9°F13.8°C 54.9°F12.7°C 93% 3.5 mph SSE5.6 kmh SSE 6.9 mph11.1 kmh 30.03 in1016.9 mb - 0.00 in0.0 mm 0.07 in1.8 mm
12:55 AM 56.9°F13.8°C 54.9°F12.7°C 93% 3.5 mph S5.6 kmh S 4.6 mph7.4 kmh 30.03 in1016.9 mb - 0.00 in0.0 mm 0.07 in1.8 mm
12:50 AM 56.8°F13.8°C 54.8°F12.7°C 93% 4.6 mph S7.4 kmh S 8.1 mph13.0 kmh 30.03 in1016.9 mb - 0.00 in0.0 mm 0.07 in1.8 mm
12:45 AM 56.8°F13.8°C 54.8°F12.7°C 93% 4.6 mph S7.4 kmh S 5.8 mph9.3 kmh 30.02 in1016.6 mb - 0.00 in0.0 mm 0.07 in1.8 mm
12:40 AM 56.8°F13.8°C 54.8°F12.7°C 93% 4.6 mph S7.4 kmh S 6.9 mph11.1 kmh 30.03 in1016.9 mb - 0.00 in0.0 mm 0.07 in1.8 mm
12:35 AM 56.8°F13.8°C 54.8°F12.7°C 93% 2.3 mph S3.7 kmh S 4.6 mph7.4 kmh 30.02 in1016.6 mb - 0.00 in0.0 mm 0.07 in1.8 mm
12:30 AM 56.8°F13.8°C 54.8°F12.7°C 93% 2.3 mph S3.7 kmh S 2.3 mph3.7 kmh 30.03 in1016.9 mb - 0.00 in0.0 mm 0.07 in1.8 mm
12:25 AM 56.8°F13.8°C 54.8°F12.7°C 93% 1.2 mph SSW1.9 kmh SSW 2.3 mph3.7 kmh 30.02 in1016.6 mb - 0.00 in0.0 mm 0.07 in1.8 mm
12:20 AM 56.9°F13.8°C 54.9°F12.7°C 93% 2.3 mph S3.7 kmh S 3.5 mph5.6 kmh 30.02 in1016.6 mb - 0.01 in0.3 mm 0.07 in1.8 mm
12:15 AM 56.9°F13.8°C 54.9°F12.7°C 93% 4.6 mph SE7.4 kmh SE 5.8 mph9.3 kmh 30.02 in1016.6 mb - 0.01 in0.3 mm 0.06 in1.5 mm
12:10 AM 57.0°F13.9°C 55.0°F12.8°C 93% 2.3 mph SE3.7 kmh SE 3.5 mph5.6 kmh 30.02 in1016.6 mb - 0.01 in0.3 mm 0.05 in1.3 mm
12:00 AM 57.1°F13.9°C 55.1°F12.8°C 93% 2.3 mph SSE3.7 kmh SSE 8.1 mph13.0 kmh 30.01 in1016.3 mb - 0.04 in1.0 mm 0.04 in1.0 mm